createdAt,value
2022-09-04T00:01:00.546Z,100817.04
2022-09-04T00:03:39.659Z,100816.13
2022-09-04T00:06:16.891Z,100823.55
2022-09-04T00:09:09.467Z,100824.16
2022-09-04T00:11:58.164Z,100820.79
2022-09-04T00:14:42.833Z,100822.69
2022-09-04T00:17:33.182Z,100823.98
2022-09-04T00:20:07.857Z,100824.05
2022-09-04T00:22:55.416Z,100826.28
2022-09-04T00:25:26.490Z,100826.36
2022-09-04T00:28:24.684Z,100822.98
2022-09-04T00:31:03.474Z,100823.67
2022-09-04T00:33:53.356Z,100826.27
2022-09-04T00:36:25.627Z,100824.58
2022-09-04T00:39:03.691Z,100830.24
2022-09-04T00:42:07.040Z,100832.44
2022-09-04T00:45:03.482Z,100832.50
2022-09-04T00:47:49.013Z,100831.60
2022-09-04T00:50:47.151Z,100835.20
2022-09-04T00:53:24.401Z,100838.38
2022-09-04T00:56:32.483Z,100835.68
2022-09-04T00:59:32.146Z,100836.40
2022-09-04T01:02:25.361Z,100836.39
2022-09-04T01:05:19.561Z,100834.19
2022-09-04T01:07:59.210Z,100839.52
2022-09-04T01:10:45.994Z,100841.36
2022-09-04T01:13:37.011Z,100839.36
2022-09-04T01:16:20.083Z,100840.76
2022-09-04T01:19:08.854Z,100842.14
2022-09-04T01:22:17.754Z,100843.47
2022-09-04T01:25:47.958Z,100845.02
2022-09-04T01:28:28.200Z,100847.97
2022-09-04T01:31:14.560Z,100846.45
2022-09-04T01:34:06.548Z,100848.29
2022-09-04T01:36:50.401Z,100850.66
2022-09-04T01:39:23.743Z,100850.63
2022-09-04T01:42:26.680Z,100852.16
2022-09-04T01:44:54.837Z,100851.60
2022-09-04T01:47:37.047Z,100842.55
2022-09-04T01:50:29.049Z,100840.45
2022-09-04T01:53:25.851Z,100841.64
2022-09-04T01:56:13.426Z,100834.51
2022-09-04T01:58:48.279Z,100835.45
2022-09-04T02:01:43.257Z,100836.34
2022-09-04T02:04:48.563Z,100833.88
2022-09-04T02:07:38.421Z,100833.00
2022-09-04T02:10:56.581Z,100836.84
2022-09-04T02:14:06.673Z,100835.24
2022-09-04T02:16:46.936Z,100832.63
2022-09-04T02:19:28.371Z,100834.17
2022-09-04T02:22:07.156Z,100831.98
2022-09-04T02:24:58.464Z,100835.51
2022-09-04T02:27:50.133Z,100835.17
2022-09-04T02:30:20.563Z,100833.28
2022-09-04T02:33:23.576Z,100833.63
2022-09-04T02:36:07.466Z,100836.33
2022-09-04T02:39:12.034Z,100833.08
2022-09-04T02:42:04.091Z,100832.30
2022-09-04T02:44:47.596Z,100835.91
2022-09-04T02:47:47.384Z,100832.70
2022-09-04T02:50:38.762Z,100834.89
2022-09-04T02:53:31.977Z,100833.23
2022-09-04T02:56:09.063Z,100837.94
2022-09-04T02:58:58.900Z,100838.16
2022-09-04T03:01:50.558Z,100837.06
2022-09-04T03:04:25.058Z,100842.17
2022-09-04T03:07:11.631Z,100841.60
2022-09-04T03:09:54.563Z,100840.16
2022-09-04T03:12:46.078Z,100836.71
2022-09-04T03:15:21.795Z,100838.25
2022-09-04T03:17:59.138Z,100834.59
2022-09-04T03:20:32.178Z,100832.80
2022-09-04T03:23:10.255Z,100835.85
2022-09-04T03:26:26.527Z,100833.44
2022-09-04T03:29:16.336Z,100830.66
2022-09-04T03:32:15.512Z,100833.91
2022-09-04T03:35:18.670Z,100831.84
2022-09-04T03:38:11.237Z,100831.17
2022-09-04T03:40:52.602Z,100828.75
2022-09-04T03:43:39.043Z,100834.52
2022-09-04T03:46:42.038Z,100839.03
2022-09-04T03:49:41.299Z,100840.69
2022-09-04T03:52:33.394Z,100844.02
2022-09-04T03:55:37.483Z,100845.75
2022-09-04T03:58:54.814Z,100846.10
2022-09-04T04:01:28.783Z,100845.10
2022-09-04T04:03:59.918Z,100845.27
2022-09-04T04:06:41.886Z,100847.70
2022-09-04T04:09:15.880Z,100848.42
2022-09-04T04:12:05.773Z,100847.10
2022-09-04T04:14:39.504Z,100845.70
2022-09-04T04:17:22.827Z,100843.63
2022-09-04T04:20:23.467Z,100848.61
2022-09-04T04:23:07.991Z,100848.64
2022-09-04T04:25:39.367Z,100851.47
2022-09-04T04:28:20.321Z,100851.25
2022-09-04T04:30:53.435Z,100850.03
2022-09-04T04:33:49.033Z,100856.77
2022-09-04T04:36:26.087Z,100860.13
2022-09-04T04:39:14.720Z,100864.08
2022-09-04T04:42:05.972Z,100866.62
2022-09-04T04:45:11.878Z,100872.66
2022-09-04T04:47:58.937Z,100875.41
2022-09-04T04:50:46.240Z,100876.73
2022-09-04T04:53:39.910Z,100879.30
2022-09-04T04:56:31.771Z,100887.44
2022-09-04T04:59:24.649Z,100889.39
2022-09-04T05:01:58.036Z,100892.38
2022-09-04T05:04:47.639Z,100898.20
2022-09-04T05:07:37.220Z,100895.27
2022-09-04T05:10:20.571Z,100896.63
2022-09-04T05:13:00.415Z,100898.80
2022-09-04T05:16:18.077Z,100900.86
2022-09-04T05:18:59.800Z,100905.64
2022-09-04T05:21:42.158Z,100906.69
2022-09-04T05:24:36.350Z,100913.30
2022-09-04T05:27:40.841Z,100916.90
2022-09-04T05:30:12.688Z,100917.73
2022-09-04T05:33:00.135Z,100918.02
2022-09-04T05:36:06.661Z,100924.60
2022-09-04T05:38:57.298Z,100925.14
2022-09-04T05:41:44.132Z,100929.16
2022-09-04T05:44:41.601Z,100929.78
2022-09-04T05:47:39.266Z,100930.36
2022-09-04T05:50:41.608Z,100934.58
2022-09-04T05:53:09.783Z,100935.80
2022-09-04T05:56:05.703Z,100937.60
2022-09-04T05:59:02.728Z,100943.61
2022-09-04T06:01:56.514Z,100942.74
2022-09-04T06:04:42.782Z,100946.33
2022-09-04T06:07:35.473Z,100953.97
2022-09-04T06:10:41.359Z,100955.79
2022-09-04T06:13:15.684Z,100956.06
2022-09-04T06:16:02.983Z,100960.63
2022-09-04T06:19:11.997Z,100962.81
2022-09-04T06:21:57.703Z,100964.15
2022-09-04T06:25:11.139Z,100966.65
2022-09-04T06:28:00.464Z,100968.46
2022-09-04T06:30:48.997Z,100970.77
2022-09-04T06:33:29.917Z,100969.70
2022-09-04T06:36:36.166Z,100970.54
2022-09-04T06:39:20.036Z,100972.98
2022-09-04T06:42:13.555Z,100973.38
2022-09-04T06:45:12.177Z,100978.77
2022-09-04T06:48:25.216Z,100976.78
2022-09-04T06:51:43.143Z,100982.50
2022-09-04T06:54:51.222Z,100982.36
2022-09-04T06:57:25.589Z,100982.59
2022-09-04T07:00:09.121Z,100982.88
2022-09-04T07:02:47.336Z,100987.98
2022-09-04T07:05:38.380Z,100988.35
2022-09-04T07:08:35.571Z,100991.09
2022-09-04T07:11:28.820Z,100988.05
2022-09-04T07:14:16.637Z,100989.15
2022-09-04T07:17:06.554Z,100988.48
2022-09-04T07:20:18.830Z,100990.34
2022-09-04T07:23:03.046Z,100989.02
2022-09-04T07:25:44.488Z,100991.97
2022-09-04T07:28:44.242Z,100998.55
2022-09-04T07:31:27.235Z,101002.54
2022-09-04T07:34:13.949Z,101002.50
2022-09-04T07:36:56.131Z,101000.29
2022-09-04T07:39:50.903Z,100999.64
2022-09-04T07:42:47.829Z,101002.55
2022-09-04T07:45:53.153Z,101002.88
2022-09-04T07:48:41.133Z,101006.56
2022-09-04T07:51:28.068Z,101007.90
2022-09-04T07:54:25.163Z,101013.41
2022-09-04T07:57:34.266Z,101020.92
2022-09-04T08:00:23.086Z,101021.29
2022-09-04T08:03:13.688Z,101016.36
2022-09-04T08:05:54.722Z,101019.98
2022-09-04T08:08:47.313Z,101017.04
2022-09-04T08:11:29.839Z,101018.82
2022-09-04T08:14:19.855Z,101024.00
2022-09-04T08:17:06.769Z,101016.57
2022-09-04T08:20:10.016Z,101016.14
2022-09-04T08:23:07.624Z,101017.73
2022-09-04T08:26:14.331Z,101015.39
2022-09-04T08:29:05.389Z,101017.11
2022-09-04T08:31:43.473Z,101018.99
2022-09-04T08:34:40.137Z,101024.11
2022-09-04T08:37:28.243Z,101021.52
2022-09-04T08:40:33.060Z,101021.59
2022-09-04T08:43:52.488Z,101024.33
2022-09-04T08:47:02.046Z,101027.27
2022-09-04T08:49:39.400Z,101029.44
2022-09-04T08:52:35.162Z,101034.57
2022-09-04T08:55:43.288Z,101040.35
2022-09-04T08:58:47.053Z,101046.16
2022-09-04T09:01:40.049Z,101046.39
2022-09-04T09:04:39.045Z,101048.65
2022-09-04T09:07:45.238Z,101049.95
2022-09-04T09:10:40.124Z,101050.46
2022-09-04T09:13:56.755Z,101042.87
2022-09-04T09:16:32.667Z,101048.43
2022-09-04T09:19:40.765Z,101048.05
2022-09-04T09:22:18.454Z,101054.41
2022-09-04T09:25:32.343Z,101054.45
2022-09-04T09:28:15.828Z,101051.87
2022-09-04T09:31:21.959Z,101051.22
2022-09-04T09:33:53.501Z,101050.45
2022-09-04T09:36:35.682Z,101050.38
2022-09-04T09:39:12.976Z,101050.05
2022-09-04T09:42:15.548Z,101054.83
2022-09-04T09:45:30.859Z,101056.75
2022-09-04T09:48:17.595Z,101053.40
2022-09-04T09:50:55.140Z,101049.52
2022-09-04T09:53:44.985Z,101048.94
2022-09-04T09:57:08.752Z,101047.85
2022-09-04T09:59:41.768Z,101051.08
2022-09-04T10:02:38.510Z,101050.50
2022-09-04T10:05:31.528Z,101052.98
2022-09-04T10:08:36.018Z,101051.23
2022-09-04T10:11:29.032Z,101054.09
2022-09-04T10:14:20.242Z,101054.90
2022-09-04T10:17:24.807Z,101051.55
2022-09-04T10:20:31.192Z,101049.80
2022-09-04T10:23:05.631Z,101047.71
2022-09-04T10:25:45.892Z,101045.13
2022-09-04T10:28:29.057Z,101046.80
2022-09-04T10:31:31.736Z,101051.90
2022-09-04T10:34:27.736Z,101050.11
2022-09-04T10:37:07.347Z,101050.20
2022-09-04T10:40:27.619Z,101053.14
2022-09-04T10:43:42.657Z,101047.64
2022-09-04T10:46:48.464Z,101048.73
2022-09-04T10:49:19.365Z,101049.53
2022-09-04T10:51:50.403Z,101051.05
2022-09-04T10:54:26.159Z,101046.88
2022-09-04T10:57:17.068Z,101050.12
2022-09-04T11:00:11.917Z,101053.91
2022-09-04T11:03:11.340Z,101052.98
2022-09-04T11:05:47.054Z,101041.58
2022-09-04T11:08:20.743Z,101040.32
2022-09-04T11:11:18.176Z,101045.11
2022-09-04T11:14:11.364Z,101045.77
2022-09-04T11:16:50.599Z,101045.29
2022-09-04T11:19:57.832Z,101043.83
2022-09-04T11:23:18.734Z,101037.27
2022-09-04T11:26:26.234Z,101038.10
2022-09-04T11:29:24.682Z,101036.42
2022-09-04T11:32:27.531Z,101039.04
2022-09-04T11:35:14.061Z,101039.84
2022-09-04T11:38:17.716Z,101041.21
2022-09-04T11:41:10.880Z,101041.42
2022-09-04T11:43:51.418Z,101041.48
2022-09-04T11:46:41.794Z,101042.27
2022-09-04T11:49:30.060Z,101044.64
2022-09-04T11:52:14.714Z,101042.90
2022-09-04T11:55:06.738Z,101041.83
2022-09-04T11:57:49.457Z,101037.52
2022-09-04T12:00:19.893Z,101038.83
2022-09-04T12:03:19.088Z,101035.06
2022-09-04T12:06:35.336Z,101034.48
2022-09-04T12:09:55.614Z,101032.19
2022-09-04T12:12:48.064Z,101031.98
2022-09-04T12:15:56.472Z,101024.92
2022-09-04T12:19:03.731Z,101022.90
2022-09-04T12:22:01.666Z,101023.02
2022-09-04T12:25:34.687Z,101022.16
2022-09-04T12:28:40.099Z,101030.27
2022-09-04T12:31:57.185Z,101030.53
2022-09-04T12:35:04.304Z,101031.69
2022-09-04T12:37:45.878Z,101025.57
2022-09-04T12:40:30.811Z,101030.93
2022-09-04T12:43:21.038Z,101030.05
2022-09-04T12:46:24.970Z,101032.60
2022-09-04T12:49:06.800Z,101032.52
2022-09-04T12:52:19.350Z,101032.98
2022-09-04T12:54:54.914Z,101033.83
2022-09-04T12:57:30.657Z,101028.25
2022-09-04T13:00:15.355Z,101031.32
2022-09-04T13:03:00.406Z,101029.31
2022-09-04T13:05:53.748Z,101026.50
2022-09-04T13:08:34.231Z,101029.65
2022-09-04T13:11:21.663Z,101032.63
2022-09-04T13:14:36.351Z,101034.69
2022-09-04T13:17:50.350Z,101040.45
2022-09-04T13:20:22.934Z,101042.09
2022-09-04T13:22:54.105Z,101044.30
2022-09-04T13:26:00.441Z,101047.02
2022-09-04T13:29:03.735Z,101050.06
2022-09-04T13:32:02.916Z,101047.31
2022-09-04T13:34:46.061Z,101045.27
2022-09-04T13:37:39.338Z,101045.64
2022-09-04T13:40:40.072Z,101042.30
2022-09-04T13:43:43.550Z,101046.52
2022-09-04T13:46:39.090Z,101044.33
2022-09-04T13:49:21.108Z,101038.43
2022-09-04T13:52:00.610Z,101042.34
2022-09-04T13:54:42.229Z,101044.00
2022-09-04T13:57:21.894Z,101042.06
2022-09-04T13:59:50.760Z,101040.97
2022-09-04T14:02:26.982Z,101044.66
2022-09-04T14:05:09.594Z,101043.05
2022-09-04T14:07:44.787Z,101040.80
2022-09-04T14:10:36.305Z,101038.80
2022-09-04T14:13:35.045Z,101038.42
2022-09-04T14:16:16.276Z,101042.20
2022-09-04T14:19:15.734Z,101042.71
2022-09-04T14:22:12.375Z,101039.98
2022-09-04T14:24:56.192Z,101041.02
2022-09-04T14:27:39.693Z,101041.27
2022-09-04T14:30:24.346Z,101036.88
2022-09-04T14:33:19.319Z,101036.50
2022-09-04T14:36:05.941Z,101039.96
2022-09-04T14:38:43.268Z,101041.48
2022-09-04T14:41:34.041Z,101038.80
2022-09-04T14:44:25.409Z,101040.16
2022-09-04T14:47:00.699Z,101036.74
2022-09-04T14:49:31.953Z,101036.88
2022-09-04T14:52:21.774Z,101040.39
2022-09-04T14:54:58.538Z,101039.91
2022-09-04T14:57:42.514Z,101041.21
2022-09-04T15:00:19.338Z,101045.26
2022-09-04T15:03:15.866Z,101047.19
2022-09-04T15:05:56.729Z,101050.10
2022-09-04T15:08:28.120Z,101051.21
2022-09-04T15:11:33.409Z,101054.98
2022-09-04T15:14:23.871Z,101052.05
2022-09-04T15:16:57.321Z,101054.65
2022-09-04T15:19:46.597Z,101055.67
2022-09-04T15:22:45.672Z,101057.38
2022-09-04T15:25:58.253Z,101056.91
2022-09-04T15:28:49.945Z,101055.70
2022-09-04T15:31:35.683Z,101062.66
2022-09-04T15:34:10.382Z,101064.63
2022-09-04T15:36:45.639Z,101069.13
2022-09-04T15:39:28.552Z,101065.79
2022-09-04T15:41:57.325Z,101072.53
2022-09-04T15:44:52.799Z,101072.30
2022-09-04T15:47:36.084Z,101065.94
2022-09-04T15:50:36.518Z,101067.52
2022-09-04T15:53:26.418Z,101063.40
2022-09-04T15:56:11.387Z,101064.54
2022-09-04T15:59:01.752Z,101065.58
2022-09-04T16:01:56.611Z,101068.45
2022-09-04T16:04:26.724Z,101066.36
2022-09-04T16:07:20.595Z,101062.90
2022-09-04T16:10:21.697Z,101062.33
2022-09-04T16:12:57.436Z,101062.98
2022-09-04T16:15:31.768Z,101068.76
2022-09-04T16:18:13.765Z,101072.04
2022-09-04T16:20:59.478Z,101076.41
2022-09-04T16:23:43.473Z,101076.36
2022-09-04T16:26:17.310Z,101074.40
2022-09-04T16:29:03.678Z,101078.58
2022-09-04T16:31:36.683Z,101084.39
2022-09-04T16:34:37.452Z,101088.77
2022-09-04T16:37:21.209Z,101087.55
2022-09-04T16:40:14.834Z,101095.00
2022-09-04T16:43:20.355Z,101101.02
2022-09-04T16:46:02.160Z,101105.98
2022-09-04T16:48:47.280Z,101098.41
2022-09-04T16:51:40.362Z,101099.98
2022-09-04T16:54:13.252Z,101096.89
2022-09-04T16:56:50.143Z,101092.83
2022-09-04T16:59:42.063Z,101091.56
2022-09-04T17:02:21.861Z,101091.64
2022-09-04T17:05:35.564Z,101099.31
2022-09-04T17:08:28.208Z,101102.63
2022-09-04T17:11:11.114Z,101103.00
2022-09-04T17:14:09.220Z,101104.55
2022-09-04T17:16:53.973Z,101108.05
2022-09-04T17:19:22.175Z,101109.63
2022-09-04T17:29:02.430Z,101112.86
2022-09-04T17:29:08.973Z,101115.55
2022-09-04T17:29:14.169Z,101117.16
2022-09-04T17:31:28.632Z,101121.61
2022-09-04T17:40:37.721Z,101129.05
2022-09-04T17:40:42.888Z,101127.54
2022-09-04T17:44:04.076Z,101137.48
2022-09-04T17:46:56.017Z,101151.80
2022-09-04T17:49:34.734Z,101153.67
2022-09-04T17:52:08.906Z,101157.59
2022-09-04T17:54:49.057Z,101160.63
2022-09-04T17:58:10.639Z,101166.06
2022-09-04T18:01:33.864Z,101167.80
2022-09-04T18:04:27.189Z,101167.25
2022-09-04T18:07:21.857Z,101175.25
2022-09-04T18:10:08.970Z,101174.05
2022-09-04T18:13:36.271Z,101177.67
2022-09-04T18:16:36.356Z,101181.86
2022-09-04T18:19:31.333Z,101190.45
2022-09-04T18:22:33.482Z,101192.32
2022-09-04T18:25:27.497Z,101197.83
2022-09-04T18:28:19.001Z,101199.02
2022-09-04T18:37:06.289Z,101209.73
2022-09-04T18:37:26.211Z,101212.53
2022-09-04T18:38:41.187Z,101220.27
2022-09-04T18:48:54.957Z,101221.42
2022-09-04T18:50:30.122Z,101225.20
2022-09-04T18:50:37.889Z,101224.25
2022-09-04T18:51:05.797Z,101231.66
2022-09-04T18:53:34.540Z,101237.86
2022-09-04T18:56:20.904Z,101236.58
2022-09-04T18:59:16.988Z,101236.58
2022-09-04T19:02:04.347Z,101234.73
2022-09-04T19:05:02.407Z,101236.11
2022-09-04T19:07:37.208Z,101241.02
2022-09-04T19:10:40.810Z,101245.25
2022-09-04T19:13:30.917Z,101242.05
2022-09-04T19:16:23.381Z,101244.17
2022-09-04T19:19:17.255Z,101247.16
2022-09-04T19:21:58.255Z,101245.68
2022-09-04T19:24:42.154Z,101240.86
2022-09-04T19:27:34.711Z,101241.57
2022-09-04T19:30:39.770Z,101244.09
2022-09-04T19:33:28.563Z,101248.51
2022-09-04T19:36:08.333Z,101252.77
2022-09-04T19:45:57.650Z,101253.22
2022-09-04T19:45:59.229Z,101255.56
2022-09-04T19:46:19.715Z,101255.09
2022-09-04T19:48:20.515Z,101259.20
2022-09-04T19:53:30.487Z,101259.29
2022-09-04T19:54:03.995Z,101258.33
2022-09-04T19:57:31.001Z,101260.48
2022-09-04T20:05:15.715Z,101262.45
2022-09-04T20:07:55.486Z,101267.12
2022-09-04T20:10:52.603Z,101268.08
2022-09-04T20:14:13.974Z,101267.01
2022-09-04T20:16:55.306Z,101269.51
2022-09-04T20:19:39.002Z,101269.30
2022-09-04T20:23:34.518Z,101273.69
2022-09-04T20:26:23.045Z,101281.37
2022-09-04T20:29:13.918Z,101284.71
2022-09-04T20:32:09.898Z,101288.91
2022-09-04T20:34:49.721Z,101289.77
2022-09-04T20:38:39.472Z,101288.80
2022-09-04T20:42:56.537Z,101291.94
2022-09-04T20:51:45.314Z,101293.40
2022-09-04T21:12:21.227Z,101325.33
2022-09-04T21:27:02.993Z,101338.31
2022-09-04T21:28:02.262Z,101333.88
2022-09-04T21:32:48.466Z,101336.20
2022-09-04T21:41:23.563Z,101340.02
2022-09-04T21:43:24.774Z,101338.02
2022-09-04T21:44:37.629Z,101341.42
2022-09-04T21:48:32.376Z,101339.75
2022-09-04T21:56:53.426Z,101343.86
2022-09-04T21:57:50.452Z,101340.92
2022-09-04T22:04:24.439Z,101348.45
2022-09-04T22:13:38.857Z,101352.67
2022-09-04T22:14:08.404Z,101352.70
2022-09-04T22:57:56.005Z,101365.80
2022-09-04T23:01:11.531Z,101363.21
2022-09-04T23:04:05.923Z,101364.86
2022-09-04T23:08:22.958Z,101370.84
2022-09-04T23:13:51.849Z,101364.19
2022-09-04T23:14:03.083Z,101365.00
2022-09-04T23:16:45.311Z,101364.52
2022-09-04T23:24:42.477Z,101366.95
2022-09-04T23:26:45.336Z,101369.48
2022-09-04T23:26:49.802Z,101369.18
2022-09-04T23:29:26.791Z,101370.02
2022-09-04T23:32:30.941Z,101368.85
2022-09-04T23:35:58.408Z,101371.24
2022-09-04T23:39:32.750Z,101369.64
2022-09-04T23:42:58.470Z,101372.88
2022-09-04T23:46:01.475Z,101377.46
2022-09-04T23:49:29.272Z,101376.08
2022-09-04T23:52:47.761Z,101379.96
2022-09-04T23:56:13.386Z,101379.34
2022-09-04T23:59:40.187Z,101380.92
